Time;durP1;ratioP1;P1;durP2;ratioP2;P2;SDS_P1;SDS_P2;PMS_P1;PMS_P2;Temp;Humidity;BMP_temperature;BMP_pressure;BME280_temperature;BME280_humidity;BME280_pressure;Samples;Min_cycle;Max_cycle;Signal;HPM_P1;HPM_P2
2023/03/05 00:00:36;;;;;;;1.05;1.05;;;15.50;70.10;;;;;;5073265;28;20443;-71
2023/03/05 00:03:02;;;;;;;1.30;1.20;;;15.50;69.30;;;;;;5090129;28;20032;-71
2023/03/05 00:05:28;;;;;;;1.27;1.20;;;15.50;69.30;;;;;;5096576;28;20040;-71
2023/03/05 00:07:53;;;;;;;1.65;1.55;;;15.50;69.40;;;;;;5093113;28;20583;-71
2023/03/05 00:10:19;;;;;;;1.10;1.10;;;15.40;69.40;;;;;;5094073;28;20027;-71
2023/03/05 00:12:45;;;;;;;1.58;1.48;;;15.50;69.50;;;;;;5095114;28;20146;-71
2023/03/05 00:15:10;;;;;;;1.20;1.20;;;15.50;69.40;;;;;;5097087;28;20505;-71
2023/03/05 00:17:36;;;;;;;1.42;1.20;;;15.40;69.50;;;;;;5093625;28;20024;-72
2023/03/05 00:20:02;;;;;;;1.58;1.50;;;15.40;69.60;;;;;;5072801;28;20016;-71
2023/03/05 00:22:27;;;;;;;1.15;1.15;;;15.50;69.50;;;;;;5070464;28;20032;-71
2023/03/05 00:24:53;;;;;;;1.40;1.30;;;15.50;69.40;;;;;;5093716;28;20027;-71
2023/03/05 00:27:19;;;;;;;1.45;1.35;;;15.40;69.40;;;;;;5092529;28;20532;-71
2023/03/05 00:29:44;;;;;;;1.45;1.35;;;15.40;69.50;;;;;;5092891;28;20024;-71
2023/03/05 00:32:10;;;;;;;1.60;1.50;;;15.40;69.50;;;;;;5094331;28;20028;-71
2023/03/05 00:34:36;;;;;;;1.33;1.23;;;15.40;69.60;;;;;;5070062;28;20411;-71
2023/03/05 00:37:01;;;;;;;0.90;0.90;;;15.40;69.60;;;;;;5094940;28;20028;-71
2023/03/05 00:39:27;;;;;;;1.20;1.10;;;15.30;69.70;;;;;;5092534;28;20042;-71
2023/03/05 00:41:53;;;;;;;1.15;1.10;;;15.30;69.80;;;;;;5095916;28;20432;-71
2023/03/05 00:44:19;;;;;;;1.23;1.20;;;15.30;69.80;;;;;;5094540;28;20103;-71
2023/03/05 00:46:45;;;;;;;1.10;1.10;;;15.30;69.80;;;;;;5094645;28;20508;-71
2023/03/05 00:49:11;;;;;;;1.13;1.13;;;15.30;69.90;;;;;;5068486;28;20048;-71
2023/03/05 00:51:36;;;;;;;1.00;1.00;;;15.30;70.00;;;;;;5077570;28;20038;-71
2023/03/05 00:54:03;;;;;;;1.25;1.25;;;15.30;70.00;;;;;;5095219;28;20020;-71
2023/03/05 00:56:28;;;;;;;0.88;0.88;;;15.20;70.00;;;;;;5074317;28;20028;-71
2023/03/05 00:58:54;;;;;;;1.25;1.25;;;15.30;70.00;;;;;;5091854;28;20577;-71
2023/03/05 01:01:20;;;;;;;1.20;1.10;;;15.30;70.00;;;;;;5095489;28;20037;-71
2023/03/05 01:03:47;;;;;;;1.23;1.13;;;15.30;70.80;;;;;;5068164;28;20466;-71
2023/03/05 01:06:13;;;;;;;1.05;1.05;;;15.20;70.10;;;;;;5095109;28;20019;-71
2023/03/05 01:08:39;;;;;;;1.00;1.00;;;15.20;70.10;;;;;;5070111;28;20073;-71
2023/03/05 01:11:05;;;;;;;1.25;1.15;;;15.20;69.90;;;;;;5096030;28;20024;-72
2023/03/05 01:13:30;;;;;;;1.10;1.08;;;15.20;70.10;;;;;;5078681;28;20032;-71
2023/03/05 01:15:56;;;;;;;1.00;1.00;;;15.20;70.20;;;;;;5077960;28;20113;-71
2023/03/05 01:18:22;;;;;;;1.10;1.10;;;15.20;70.20;;;;;;5089282;28;20036;-71
2023/03/05 01:20:47;;;;;;;1.10;1.00;;;15.20;70.20;;;;;;5049379;28;20050;-71
2023/03/05 01:23:13;;;;;;;1.33;1.27;;;15.20;70.20;;;;;;5095333;28;20036;-72
2023/03/05 01:25:38;;;;;;;1.00;1.00;;;15.20;70.30;;;;;;5097738;28;20028;-71
2023/03/05 01:28:04;;;;;;;1.00;1.00;;;15.10;70.30;;;;;;5094320;28;20016;-71
2023/03/05 01:30:30;;;;;;;0.93;0.93;;;15.10;70.30;;;;;;5090154;28;20556;-71
2023/03/05 01:32:55;;;;;;;1.08;1.00;;;15.10;70.30;;;;;;5089123;28;20016;-71
2023/03/05 01:35:22;;;;;;;1.50;1.40;;;15.10;70.10;;;;;;5092807;28;20086;-71
2023/03/05 01:37:47;;;;;;;1.30;1.20;;;15.10;70.40;;;;;;5071422;28;20028;-71
2023/03/05 01:40:14;;;;;;;1.10;1.10;;;15.10;70.30;;;;;;5097179;28;20095;-71
2023/03/05 01:42:45;;;;;;;1.52;1.42;;;15.10;70.30;;;;;;5056971;28;20031;-71
2023/03/05 01:45:13;;;;;;;1.23;1.20;;;15.10;70.30;;;;;;5099361;28;20019;-71
2023/03/05 01:47:39;;;;;;;1.17;1.08;;;15.00;70.50;;;;;;5076544;28;20044;-71
2023/03/05 01:50:06;;;;;;;1.08;1.00;;;15.10;70.50;;;;;;5093893;28;20095;-71
2023/03/05 01:52:32;;;;;;;1.00;1.00;;;15.10;70.40;;;;;;5070724;28;20027;-71
2023/03/05 01:54:59;;;;;;;1.00;1.00;;;15.10;70.50;;;;;;5095402;28;20028;-71
2023/03/05 01:57:45;;;;;;;1.00;1.00;;;15.10;70.50;;;;;;5062719;28;20410;-71
2023/03/05 02:00:18;;;;;;;1.00;1.00;;;15.00;70.40;;;;;;5065252;28;20592;-71
2023/03/05 02:02:46;;;;;;;1.10;1.10;;;15.00;70.40;;;;;;5093877;28;20031;-71
2023/03/05 02:05:27;;;;;;;0.90;0.90;;;15.00;70.60;;;;;;5070910;28;20048;-71
2023/03/05 02:08:00;;;;;;;0.90;0.90;;;15.00;70.60;;;;;;5071703;28;20024;-71
2023/03/05 02:10:35;;;;;;;0.80;0.80;;;15.00;70.50;;;;;;5071884;28;20051;-71
2023/03/05 02:13:02;;;;;;;0.80;0.80;;;15.00;70.60;;;;;;5054796;28;20281;-71
2023/03/05 02:15:28;;;;;;;0.98;0.98;;;15.00;70.70;;;;;;5080439;28;20440;-71
2023/03/05 02:17:54;;;;;;;0.88;0.88;;;15.00;70.70;;;;;;5077756;28;20054;-71
2023/03/05 02:20:24;;;;;;;0.80;0.80;;;15.00;70.60;;;;;;5068572;28;20047;-71
2023/03/05 02:22:50;;;;;;;0.90;0.90;;;15.00;70.70;;;;;;5058952;28;20031;-71
2023/03/05 02:25:23;;;;;;;0.90;0.90;;;15.00;70.70;;;;;;5096847;28;20105;-71
2023/03/05 02:27:56;;;;;;;0.90;0.90;;;14.90;70.60;;;;;;5088865;28;20020;-70
2023/03/05 02:30:22;;;;;;;0.77;0.77;;;15.00;70.60;;;;;;5083687;28;20024;-71
2023/03/05 02:32:48;;;;;;;0.70;0.70;;;15.00;70.40;;;;;;5093769;28;20024;-71
2023/03/05 02:35:13;;;;;;;0.90;0.90;;;15.00;70.50;;;;;;5095757;28;20396;-71
2023/03/05 02:37:39;;;;;;;0.82;0.82;;;15.00;70.70;;;;;;5096336;28;20027;-71
2023/03/05 02:40:06;;;;;;;0.75;0.75;;;15.00;70.60;;;;;;5094010;28;20029;-71
2023/03/05 02:42:32;;;;;;;1.10;1.10;;;15.00;70.60;;;;;;5098142;28;20782;-71
2023/03/05 02:44:59;;;;;;;0.77;0.77;;;15.00;70.60;;;;;;5092355;28;20028;-71
2023/03/05 02:47:25;;;;;;;1.77;1.00;;;14.90;70.70;;;;;;5089623;28;20063;-71
2023/03/05 02:49:51;;;;;;;0.70;0.70;;;14.90;70.70;;;;;;5094503;28;20065;-73
2023/03/05 02:52:16;;;;;;;0.82;0.82;;;14.90;70.60;;;;;;5074183;28;20028;-73
2023/03/05 02:54:42;;;;;;;0.85;0.85;;;14.90;70.60;;;;;;5091058;28;20119;-73
2023/03/05 02:57:08;;;;;;;0.60;0.60;;;14.90;70.60;;;;;;5093808;28;20497;-73
2023/03/05 02:59:33;;;;;;;0.65;0.65;;;14.90;70.60;;;;;;5087344;28;20023;-74
2023/03/05 03:01:59;;;;;;;0.80;0.80;;;14.90;70.60;;;;;;5088129;28;20607;-73
2023/03/05 03:04:24;;;;;;;0.77;0.77;;;14.90;70.60;;;;;;5091209;28;20028;-73
2023/03/05 03:06:50;;;;;;;0.68;0.68;;;14.90;70.60;;;;;;5069733;28;20027;-74
2023/03/05 03:09:16;;;;;;;0.70;0.70;;;14.90;70.70;;;;;;5086929;28;20110;-73
2023/03/05 03:11:41;;;;;;;0.80;0.80;;;14.90;70.70;;;;;;5094315;28;20012;-73
2023/03/05 03:14:07;;;;;;;0.75;0.75;;;14.90;70.70;;;;;;5092628;28;20094;-73
2023/03/05 03:16:32;;;;;;;0.70;0.70;;;14.90;70.70;;;;;;5054927;28;20020;-73
2023/03/05 03:18:58;;;;;;;0.90;0.80;;;14.90;70.90;;;;;;5068032;28;20028;-73
2023/03/05 03:21:24;;;;;;;0.60;0.60;;;14.90;70.70;;;;;;5089809;28;20531;-73
2023/03/05 03:23:49;;;;;;;0.77;0.77;;;14.90;70.80;;;;;;5076128;28;20028;-73
2023/03/05 03:26:16;;;;;;;1.10;1.10;;;14.90;70.70;;;;;;5092628;28;20488;-73
2023/03/05 03:28:42;;;;;;;0.82;0.82;;;14.90;70.70;;;;;;5093735;28;20042;-73
2023/03/05 03:31:07;;;;;;;0.80;0.80;;;14.90;71.00;;;;;;5096719;28;20543;-73
2023/03/05 03:33:33;;;;;;;0.80;0.70;;;14.90;70.80;;;;;;5087926;28;20032;-73
2023/03/05 03:35:59;;;;;;;0.80;0.80;;;14.90;70.80;;;;;;5093481;28;20107;-73
2023/03/05 03:38:24;;;;;;;0.90;0.90;;;14.90;71.00;;;;;;5093481;28;20084;-73
2023/03/05 03:40:50;;;;;;;0.60;0.60;;;14.80;70.90;;;;;;5095973;28;20107;-73
2023/03/05 03:43:15;;;;;;;0.80;0.80;;;14.80;70.90;;;;;;5091991;28;20020;-73
2023/03/05 03:45:44;;;;;;;1.33;0.90;;;14.80;70.90;;;;;;5088193;28;20035;-73
2023/03/05 03:48:10;;;;;;;0.60;0.60;;;14.80;70.90;;;;;;5093755;28;20505;-73
2023/03/05 03:50:39;;;;;;;0.80;0.80;;;14.80;70.90;;;;;;5090442;28;20020;-73
2023/03/05 03:53:05;;;;;;;0.90;0.90;;;14.80;70.80;;;;;;5065016;28;20091;-73
2023/03/05 03:55:30;;;;;;;1.00;1.00;;;14.80;70.90;;;;;;5053581;28;20501;-73
2023/03/05 03:57:56;;;;;;;0.80;0.80;;;14.80;70.90;;;;;;5090398;28;20025;-73
2023/03/05 04:00:21;;;;;;;0.60;0.60;;;14.80;71.00;;;;;;5095959;28;20467;-73
2023/03/05 04:02:47;;;;;;;0.88;0.88;;;14.80;70.90;;;;;;5093310;28;20016;-73
2023/03/05 04:05:13;;;;;;;0.55;0.55;;;14.80;70.90;;;;;;5090725;28;20432;-73
2023/03/05 04:07:38;;;;;;;0.60;0.60;;;14.80;70.90;;;;;;5089856;28;20099;-73
2023/03/05 04:10:04;;;;;;;0.80;0.80;;;14.80;70.90;;;;;;5094013;28;20077;-73
2023/03/05 04:12:30;;;;;;;0.73;0.73;;;14.80;71.00;;;;;;5091343;28;20024;-74
2023/03/05 04:14:55;;;;;;;0.85;0.85;;;14.80;71.80;;;;;;5092298;28;20026;-73
2023/03/05 04:17:21;;;;;;;0.73;0.73;;;14.80;70.90;;;;;;5090933;28;20573;-73
2023/03/05 04:19:46;;;;;;;0.80;0.80;;;14.80;71.00;;;;;;5094700;28;20024;-73
2023/03/05 04:22:13;;;;;;;1.00;1.00;;;14.80;70.90;;;;;;5069652;28;20028;-74
2023/03/05 04:24:39;;;;;;;0.90;0.90;;;14.80;70.90;;;;;;5070686;28;20111;-74
2023/03/05 04:27:05;;;;;;;0.80;0.80;;;14.80;71.10;;;;;;5092340;28;20106;-73
2023/03/05 04:29:30;;;;;;;0.95;0.90;;;14.80;71.90;;;;;;5081872;28;20023;-73
2023/03/05 04:31:56;;;;;;;0.90;0.90;;;14.80;71.00;;;;;;5097501;28;20449;-73
2023/03/05 04:34:21;;;;;;;1.00;0.90;;;14.80;71.10;;;;;;5071581;28;20024;-73
2023/03/05 04:36:47;;;;;;;0.75;0.75;;;14.80;71.00;;;;;;5092749;28;20032;-73
2023/03/05 04:39:13;;;;;;;0.70;0.70;;;14.80;71.10;;;;;;5094307;28;20043;-74
2023/03/05 04:41:38;;;;;;;2.05;0.88;;;14.80;71.10;;;;;;5092160;28;20027;-73
2023/03/05 04:44:04;;;;;;;0.70;0.70;;;14.80;71.00;;;;;;5085213;28;20036;-73
2023/03/05 04:46:29;;;;;;;0.80;0.80;;;14.80;71.10;;;;;;5091588;28;20390;-73
2023/03/05 04:48:56;;;;;;;0.70;0.70;;;14.70;71.10;;;;;;5095228;28;20048;-73
2023/03/05 04:51:22;;;;;;;0.50;0.50;;;14.70;71.10;;;;;;5085928;28;20016;-73
2023/03/05 04:53:47;;;;;;;0.80;0.80;;;14.70;71.00;;;;;;5087198;28;20031;-73
2023/03/05 04:56:13;;;;;;;0.70;0.70;;;14.70;71.00;;;;;;5089210;28;20054;-73
2023/03/05 04:58:38;;;;;;;0.80;0.80;;;14.70;71.00;;;;;;5092482;28;20114;-73
2023/03/05 05:01:04;;;;;;;0.75;0.75;;;14.70;71.10;;;;;;5096115;28;20535;-73
2023/03/05 05:03:30;;;;;;;0.80;0.80;;;14.70;71.10;;;;;;5089386;28;20035;-73
2023/03/05 05:05:56;;;;;;;0.70;0.70;;;14.70;71.00;;;;;;5096171;28;20115;-74
2023/03/05 05:08:22;;;;;;;1.00;0.80;;;14.70;71.10;;;;;;5096897;28;20171;-73
2023/03/05 05:10:57;;;;;;;0.90;0.90;;;14.70;71.00;;;;;;5071882;28;20472;-73
2023/03/05 05:13:23;;;;;;;0.80;0.80;;;14.70;70.90;;;;;;5067955;28;20039;-74
2023/03/05 05:15:49;;;;;;;0.65;0.65;;;14.70;70.90;;;;;;5098420;28;20031;-73
2023/03/05 05:18:14;;;;;;;0.80;0.80;;;14.60;70.90;;;;;;5093579;28;20028;-73
2023/03/05 05:20:40;;;;;;;0.65;0.65;;;14.70;71.00;;;;;;5081948;28;20028;-73
2023/03/05 05:23:06;;;;;;;0.75;0.75;;;14.70;71.00;;;;;;5093031;28;20490;-73
2023/03/05 05:25:31;;;;;;;1.00;1.00;;;14.70;71.00;;;;;;5094467;28;20039;-73
2023/03/05 05:27:57;;;;;;;0.82;0.82;;;14.70;71.00;;;;;;5088509;28;20107;-73
2023/03/05 05:30:23;;;;;;;0.63;0.63;;;14.70;71.00;;;;;;5097338;28;20031;-73
2023/03/05 05:32:48;;;;;;;0.80;0.80;;;14.70;71.00;;;;;;5093891;28;20028;-73
2023/03/05 05:35:14;;;;;;;0.93;0.93;;;14.70;71.10;;;;;;5084205;28;20504;-73
2023/03/05 05:37:39;;;;;;;0.70;0.70;;;14.70;71.10;;;;;;5078587;28;20020;-73
2023/03/05 05:40:07;;;;;;;0.98;0.98;;;14.70;71.10;;;;;;5095289;28;20027;-73
2023/03/05 05:42:32;;;;;;;0.90;0.90;;;14.70;70.90;;;;;;5094149;28;20027;-73
2023/03/05 05:44:58;;;;;;;0.70;0.70;;;14.70;71.00;;;;;;5096711;28;20411;-73
2023/03/05 05:47:24;;;;;;;0.80;0.80;;;14.70;70.90;;;;;;5089142;28;20048;-73
2023/03/05 05:49:49;;;;;;;0.80;0.80;;;14.70;70.90;;;;;;5096517;28;20408;-73
2023/03/05 05:52:15;;;;;;;0.70;0.70;;;14.70;71.00;;;;;;5097845;28;20099;-73
2023/03/05 05:54:41;;;;;;;0.60;0.60;;;14.70;71.00;;;;;;5073754;28;20029;-73
2023/03/05 05:57:06;;;;;;;0.90;0.90;;;14.60;70.70;;;;;;5093660;28;20027;-73
2023/03/05 05:59:32;;;;;;;0.50;0.50;;;14.70;71.00;;;;;;5087370;28;20027;-73
2023/03/05 06:01:58;;;;;;;0.55;0.55;;;14.60;71.00;;;;;;5078751;28;20765;-73
2023/03/05 06:04:23;;;;;;;0.93;0.93;;;14.60;70.90;;;;;;5093214;28;20111;-73
2023/03/05 06:06:49;;;;;;;0.88;0.88;;;14.60;70.90;;;;;;5080214;28;20031;-73
2023/03/05 06:09:15;;;;;;;0.80;0.80;;;14.60;70.90;;;;;;5074471;28;20052;-73
2023/03/05 06:11:40;;;;;;;0.85;0.85;;;14.70;71.00;;;;;;5093824;28;20378;-73
2023/03/05 06:14:07;;;;;;;0.90;0.90;;;14.60;71.00;;;;;;5094283;28;20519;-73
2023/03/05 06:16:33;;;;;;;0.73;0.73;;;14.60;71.00;;;;;;5091117;28;20039;-73
2023/03/05 06:18:58;;;;;;;1.10;1.10;;;14.60;70.90;;;;;;5092395;28;20091;-73
2023/03/05 06:21:24;;;;;;;0.90;0.90;;;14.60;71.10;;;;;;5098342;28;20392;-73
2023/03/05 06:23:50;;;;;;;0.93;0.93;;;14.60;70.90;;;;;;5091014;28;20496;-73
2023/03/05 06:26:17;;;;;;;1.73;1.02;;;14.60;71.10;;;;;;5094174;28;20031;-73
2023/03/05 06:28:43;;;;;;;0.60;0.60;;;14.60;70.90;;;;;;5073610;28;20033;-73
2023/03/05 06:31:10;;;;;;;0.80;0.80;;;14.60;71.00;;;;;;5079599;28;20020;-73
2023/03/05 06:33:36;;;;;;;0.90;0.90;;;14.60;70.70;;;;;;5059336;28;20107;-73
2023/03/05 06:36:04;;;;;;;1.20;1.20;;;14.60;71.00;;;;;;5093547;28;20393;-73
2023/03/05 06:38:30;;;;;;;0.70;0.70;;;14.60;71.00;;;;;;5092692;28;20377;-73
2023/03/05 06:41:04;;;;;;;0.90;0.90;;;14.60;71.00;;;;;;5088342;28;20527;-74
2023/03/05 06:43:32;;;;;;;;;;;14.60;71.00;;;;;;5093319;28;20023;-73
2023/03/05 06:46:05;;;;;;;0.93;0.93;;;14.60;70.80;;;;;;5097932;28;19916;-73
2023/03/05 06:48:31;;;;;;;0.98;0.98;;;14.60;71.10;;;;;;5090313;28;20130;-73
2023/03/05 06:50:56;;;;;;;0.93;0.93;;;14.60;71.00;;;;;;5091016;28;20090;-73
2023/03/05 06:53:23;;;;;;;0.90;0.90;;;14.60;71.10;;;;;;5071750;28;20571;-73
2023/03/05 06:55:49;;;;;;;0.70;0.70;;;14.60;71.10;;;;;;5073486;28;20111;-73
2023/03/05 06:58:14;;;;;;;0.60;0.60;;;14.50;71.30;;;;;;5094019;28;20572;-73
2023/03/05 07:00:40;;;;;;;0.65;0.65;;;14.60;71.10;;;;;;5084654;28;20034;-73
2023/03/05 07:03:05;;;;;;;0.68;0.68;;;14.60;71.20;;;;;;5090690;28;20098;-73
2023/03/05 07:05:31;;;;;;;0.70;0.70;;;14.60;71.20;;;;;;5087803;28;20040;-73
2023/03/05 07:07:57;;;;;;;0.50;0.50;;;14.60;71.10;;;;;;5090726;28;20052;-73
2023/03/05 07:10:22;;;;;;;0.50;0.50;;;14.60;71.10;;;;;;5098110;28;20111;-73
2023/03/05 07:12:48;;;;;;;0.70;0.70;;;14.60;70.80;;;;;;5093257;28;20158;-74
2023/03/05 07:15:13;;;;;;;38.53;12.38;;;14.60;71.20;;;;;;5097292;28;20499;-77
2023/03/05 07:17:39;;;;;;;202.68;63.35;;;14.70;71.30;;;;;;5067810;28;20024;-74
2023/03/05 07:20:05;;;;;;;288.90;95.10;;;14.60;71.00;;;;;;5093749;28;20535;-76
2023/03/05 07:22:31;;;;;;;317.73;105.75;;;14.70;73.90;;;;;;5087022;28;20036;-73
2023/03/05 07:24:56;;;;;;;330.80;103.40;;;14.70;74.00;;;;;;5090194;28;20036;-75
2023/03/05 07:27:24;;;;;;;355.20;113.20;;;14.60;74.70;;;;;;5079191;28;20049;-73
2023/03/05 07:29:50;;;;;;;332.75;109.53;;;14.60;74.90;;;;;;5080626;28;20545;-74
2023/03/05 07:32:15;;;;;;;344.13;108.72;;;14.70;74.80;;;;;;5090415;28;20106;-74
2023/03/05 07:34:41;;;;;;;337.13;107.78;;;14.70;75.60;;;;;;4734504;28;10000092;-73
2023/03/05 07:37:06;;;;;;;352.00;113.43;;;14.70;75.20;;;;;;5091799;28;20700;-74
2023/03/05 07:39:32;;;;;;;332.55;108.93;;;14.60;76.00;;;;;;5089668;28;20039;-74
2023/03/05 07:41:57;;;;;;;342.20;110.47;;;14.70;75.60;;;;;;5096247;28;20404;-74
2023/03/05 07:44:23;;;;;;;336.35;110.63;;;14.60;75.10;;;;;;5089454;28;20028;-73
2023/03/05 07:46:48;;;;;;;325.75;109.47;;;14.60;75.10;;;;;;5088705;28;20544;-73
2023/03/05 07:49:14;;;;;;;320.20;109.18;;;14.60;75.00;;;;;;5083699;28;20130;-72
2023/03/05 07:51:40;;;;;;;319.33;108.57;;;14.60;75.50;;;;;;5067285;28;20404;-73
2023/03/05 07:54:06;;;;;;;292.98;100.97;;;14.70;76.30;;;;;;5089629;28;20740;-73
2023/03/05 07:56:34;;;;;;;294.05;99.30;;;14.60;76.50;;;;;;5068688;28;20034;-73
2023/03/05 07:59:01;;;;;;;270.45;92.50;;;14.60;76.60;;;;;;5089751;28;20149;-72
2023/03/05 08:01:27;;;;;;;260.52;84.57;;;14.60;76.70;;;;;;5088053;28;20480;-73
2023/03/05 08:03:53;;;;;;;244.18;84.18;;;14.60;77.50;;;;;;5069487;28;20063;-73
2023/03/05 08:06:18;;;;;;;250.02;77.95;;;14.60;78.20;;;;;;5083261;28;20133;-73
2023/03/05 08:08:44;;;;;;;247.32;77.47;;;14.60;77.60;;;;;;5088949;28;20812;-73
2023/03/05 08:11:11;;;;;;;221.20;73.90;;;14.60;77.70;;;;;;5084925;28;20069;-73
2023/03/05 08:13:36;;;;;;;220.68;73.07;;;14.60;76.80;;;;;;5075891;28;20100;-73
2023/03/05 08:16:10;;;;;;;224.40;72.75;;;14.60;76.50;;;;;;5072886;28;20660;-72
2023/03/05 08:18:36;;;;;;;217.57;71.25;;;14.60;76.70;;;;;;5066647;28;20032;-72
2023/03/05 08:21:02;;;;;;;195.35;67.13;;;14.70;76.80;;;;;;5087792;28;20040;-73
2023/03/05 08:23:27;;;;;;;192.25;63.38;;;14.70;77.00;;;;;;5088799;28;20024;-74
2023/03/05 08:25:53;;;;;;;181.63;59.72;;;14.60;78.40;;;;;;5081943;28;20037;-73
2023/03/05 08:28:19;;;;;;;151.70;52.67;;;14.60;76.40;;;;;;5093722;28;20054;-72
2023/03/05 08:30:47;;;;;;;142.93;48.10;;;14.80;75.30;;;;;;5092357;28;20032;-71
2023/03/05 08:33:14;;;;;;;131.20;45.25;;;14.80;74.00;;;;;;5089068;28;20016;-72
2023/03/05 08:35:39;;;;;;;129.48;45.50;;;14.80;74.90;;;;;;5088631;28;20034;-72
2023/03/05 08:38:05;;;;;;;145.35;49.58;;;14.70;76.70;;;;;;5086447;28;20035;-72
2023/03/05 08:40:30;;;;;;;137.45;47.90;;;14.70;77.60;;;;;;5085141;28;20442;-72
2023/03/05 08:42:57;;;;;;;135.35;47.72;;;14.70;77.50;;;;;;5093808;28;20090;-71
2023/03/05 08:45:22;;;;;;;136.10;47.08;;;14.70;77.90;;;;;;5089262;28;20024;-73
2023/03/05 08:47:48;;;;;;;131.07;46.33;;;14.70;75.40;;;;;;5082154;28;20416;-72
2023/03/05 08:50:14;;;;;;;123.15;46.33;;;14.70;77.00;;;;;;5087322;28;20039;-72
2023/03/05 08:52:39;;;;;;;118.97;42.10;;;14.70;76.30;;;;;;5047055;28;20077;-73
2023/03/05 08:55:05;;;;;;;124.00;43.22;;;14.70;76.70;;;;;;5085108;28;20524;-73
2023/03/05 08:57:31;;;;;;;117.63;42.92;;;14.80;75.90;;;;;;5089584;28;20128;-72
2023/03/05 08:59:56;;;;;;;118.07;43.15;;;14.80;77.30;;;;;;5067843;28;20024;-73
2023/03/05 09:02:22;;;;;;;115.47;42.30;;;14.80;77.00;;;;;;5082247;28;20027;-72
2023/03/05 09:04:47;;;;;;;114.90;41.67;;;14.80;77.40;;;;;;5069293;28;20078;-72
2023/03/05 09:07:13;;;;;;;110.90;40.58;;;14.70;76.80;;;;;;5068697;28;20031;-72
2023/03/05 09:09:39;;;;;;;110.38;40.67;;;14.80;75.90;;;;;;5085660;28;20058;-72
2023/03/05 09:12:05;;;;;;;109.90;41.40;;;14.70;77.50;;;;;;5062853;28;20016;-72
2023/03/05 09:14:30;;;;;;;107.88;40.80;;;14.80;76.00;;;;;;5086938;28;20024;-72
2023/03/05 09:16:56;;;;;;;107.68;38.33;;;14.90;75.60;;;;;;5085284;28;20051;-72
2023/03/05 09:19:22;;;;;;;114.07;41.42;;;14.80;76.40;;;;;;5065502;28;20132;-72
2023/03/05 09:21:47;;;;;;;113.68;42.22;;;14.80;75.20;;;;;;5091151;28;20031;-72
2023/03/05 09:24:13;;;;;;;113.47;40.28;;;14.80;75.00;;;;;;5084340;28;20028;-73
2023/03/05 09:26:39;;;;;;;115.35;41.22;;;14.70;74.50;;;;;;5085309;28;20036;-72
2023/03/05 09:29:07;;;;;;;113.85;40.25;;;14.70;76.00;;;;;;5070392;28;20027;-72
2023/03/05 09:31:33;;;;;;;105.30;39.67;;;14.80;74.90;;;;;;5083698;28;20024;-72
2023/03/05 09:33:59;;;;;;;106.13;39.75;;;14.80;75.50;;;;;;5085848;28;20024;-73
2023/03/05 09:36:26;;;;;;;104.57;38.42;;;14.90;76.00;;;;;;5061431;28;20571;-72
2023/03/05 09:38:52;;;;;;;107.68;38.00;;;14.90;75.30;;;;;;5074462;28;20035;-73
2023/03/05 09:41:25;;;;;;;97.93;37.30;;;14.90;75.60;;;;;;5084424;28;20107;-72
2023/03/05 09:44:29;;;;;;;96.68;36.58;;;14.90;75.50;;;;;;5095375;28;20085;-73
2023/03/05 09:47:14;;;;;;;96.20;35.50;;;15.00;75.80;;;;;;5071175;28;20044;-73
2023/03/05 09:49:59;;;;;;;95.97;36.55;;;14.90;75.60;;;;;;5086509;28;20032;-73
2023/03/05 09:52:33;;;;;;;96.45;36.22;;;14.90;76.00;;;;;;5092256;28;20096;-73
2023/03/05 09:54:59;;;;;;;;;;;14.90;75.60;;;;;;5089992;28;20115;-73
2023/03/05 09:57:44;;;;;;;89.35;32.80;;;15.00;74.60;;;;;;5093416;28;20029;-73
2023/03/05 10:00:22;;;;;;;93.30;33.90;;;14.90;75.00;;;;;;5052755;28;20153;-73
2023/03/05 10:02:52;;;;;;;94.10;35.00;;;15.00;75.20;;;;;;5087055;28;20498;-73
2023/03/05 10:05:44;;;;;;;87.03;34.97;;;15.00;74.80;;;;;;5045840;28;20035;-72
2023/03/05 10:08:10;;;;;;;86.85;33.88;;;15.00;74.50;;;;;;5077697;28;20040;-73
2023/03/05 10:10:38;;;;;;;94.13;34.17;;;14.90;74.80;;;;;;5057612;28;20073;-72
2023/03/05 10:13:31;;;;;;;92.13;34.75;;;14.80;75.10;;;;;;5092170;28;20020;-73
2023/03/05 10:16:06;;;;;;;84.93;32.42;;;14.80;75.00;;;;;;5072271;28;20475;-73
2023/03/05 10:18:34;;;;;;;84.80;33.65;;;14.80;75.10;;;;;;5088917;28;20085;-73
2023/03/05 10:21:04;;;;;;;82.40;32.58;;;14.80;75.20;;;;;;5069949;28;20028;-74
2023/03/05 10:23:36;;;;;;;77.10;31.95;;;14.80;74.70;;;;;;5068921;28;20506;-74
2023/03/05 10:26:29;;;;;;;78.97;30.90;;;14.80;75.10;;;;;;5055684;28;20699;-74
2023/03/05 10:29:11;;;;;;;107.30;41.28;;;14.80;75.00;;;;;;5076585;28;20031;-74
2023/03/05 10:31:50;;;;;;;115.30;47.70;;;14.80;75.30;;;;;;5054236;28;20027;-73
2023/03/05 10:34:40;;;;;;;124.72;53.42;;;14.80;75.50;;;;;;5067893;28;20021;-73
2023/03/05 10:37:06;;;;;;;128.00;53.33;;;14.80;75.20;;;;;;5090725;28;20020;-74
2023/03/05 10:40:11;;;;;;;129.73;52.75;;;14.80;75.60;;;;;;5090150;28;20034;-73
2023/03/05 10:43:00;;;;;;;121.50;52.85;;;14.80;75.20;;;;;;5036147;28;20036;-74
2023/03/05 10:45:29;;;;;;;115.45;50.75;;;14.80;75.00;;;;;;5090719;28;20415;-73
2023/03/05 10:47:58;;;;;;;116.95;49.40;;;14.80;75.60;;;;;;5065141;28;20078;-74
2023/03/05 10:50:26;;;;;;;105.50;48.42;;;14.80;74.70;;;;;;5049449;28;20489;-74
2023/03/05 10:53:12;;;;;;;151.27;52.70;;;14.80;75.70;;;;;;5033364;28;20074;-74
2023/03/05 10:55:38;;;;;;;121.63;48.80;;;14.90;75.30;;;;;;5068882;28;20024;-74
2023/03/05 10:58:14;;;;;;;112.40;46.70;;;14.90;75.90;;;;;;5069481;28;20021;-74
2023/03/05 11:00:56;;;;;;;107.38;45.08;;;14.80;74.70;;;;;;5069407;28;20510;-74
2023/03/05 11:03:22;;;;;;;114.93;48.60;;;14.90;75.00;;;;;;5032015;28;20024;-74
2023/03/05 11:05:59;;;;;;;106.63;47.60;;;15.00;75.10;;;;;;5070142;28;20032;-74
2023/03/05 11:08:32;;;;;;;106.30;46.05;;;15.10;74.80;;;;;;5050976;28;20067;-73
2023/03/05 11:11:11;;;;;;;107.65;48.50;;;15.20;74.10;;;;;;5070608;28;20025;-75
2023/03/05 11:13:47;;;;;;;104.88;47.17;;;15.40;73.70;;;;;;5065669;28;20035;-74
2023/03/05 11:16:24;;;;;;;94.53;41.13;;;15.60;73.40;;;;;;5046429;28;20036;-75
2023/03/05 11:18:49;;;;;;;96.60;42.50;;;15.70;72.40;;;;;;5049688;28;20024;-74
2023/03/05 11:21:26;;;;;;;84.32;40.15;;;15.70;72.10;;;;;;5052074;28;20073;-74
2023/03/05 11:24:05;;;;;;;100.50;43.13;;;15.80;71.90;;;;;;5065973;28;20523;-75
2023/03/05 11:26:31;;;;;;;83.45;39.08;;;15.80;71.40;;;;;;5067496;28;20409;-74
2023/03/05 11:28:58;;;;;;;86.53;41.13;;;15.80;71.00;;;;;;5068705;28;20023;-74
2023/03/05 11:31:33;;;;;;;86.09;40.61;;;15.80;71.10;;;;;;5054588;28;10001016;-76
2023/03/05 11:34:22;;;;;;;80.60;39.42;;;15.80;70.90;;;;;;5069219;28;20257;-76
2023/03/05 11:36:54;;;;;;;89.93;41.63;;;15.80;70.50;;;;;;5039036;28;20033;-75
2023/03/05 11:39:23;;;;;;;79.57;36.88;;;15.90;70.90;;;;;;4798948;28;10000987;-76
2023/03/05 11:42:05;;;;;;;82.22;38.85;;;15.90;71.00;;;;;;5060028;28;20260;-74
2023/03/05 11:44:48;;;;;;;75.15;36.83;;;15.90;70.20;;;;;;5061997;28;20047;-76
2023/03/05 11:47:26;;;;;;;77.10;34.85;;;15.90;70.60;;;;;;5064524;28;20063;-75
2023/03/05 11:50:14;;;;;;;77.10;34.45;;;15.90;70.30;;;;;;5071025;28;20032;-75
2023/03/05 11:52:53;;;;;;;71.63;33.75;;;15.90;70.50;;;;;;5059638;28;20040;-75
2023/03/05 11:55:25;;;;;;;74.93;35.97;;;16.00;70.30;;;;;;5071266;28;20127;-75
2023/03/05 11:57:54;;;;;;;78.18;36.42;;;16.20;70.30;;;;;;5087482;28;20082;-75
2023/03/05 12:00:23;;;;;;;72.07;34.88;;;16.20;69.70;;;;;;5074112;28;20076;-73
2023/03/05 12:02:51;;;;;;;75.88;35.47;;;16.30;69.50;;;;;;5075917;28;20780;-75
2023/03/05 12:05:16;;;;;;;68.15;31.48;;;16.40;69.20;;;;;;5068409;28;20055;-75
2023/03/05 12:07:45;;;;;;;68.65;32.83;;;16.40;69.10;;;;;;5063780;28;20051;-75
2023/03/05 12:10:16;;;;;;;69.18;33.17;;;16.50;68.30;;;;;;5051113;28;20032;-75
2023/03/05 12:12:50;;;;;;;60.42;30.92;;;16.50;68.30;;;;;;5068824;28;20079;-75
2023/03/05 12:15:35;;;;;;;;;;;16.60;68.40;;;;;;5070782;28;20055;-75
2023/03/05 12:18:51;;;;;;;67.07;31.75;;;16.70;68.00;;;;;;5091158;28;19912;-75
2023/03/05 12:21:25;;;;;;;;;;;16.80;67.70;;;;;;4985992;28;20049;-74
2023/03/05 12:24:00;;;;;;;63.35;29.90;;;16.90;66.80;;;;;;4981285;28;19934;-75
2023/03/05 12:27:02;;;;;;;58.22;30.00;;;16.90;66.60;;;;;;4964740;28;20054;-75
2023/03/05 12:29:36;;;;;;;61.85;30.42;;;17.00;66.20;;;;;;4977883;28;20046;-74
2023/03/05 12:32:01;;;;;;;59.92;30.45;;;17.10;65.60;;;;;;4981452;28;20053;-75
2023/03/05 12:34:39;;;;;;;55.45;29.98;;;17.20;65.80;;;;;;4979791;28;20046;-74
2023/03/05 12:37:32;;;;;;;56.78;28.65;;;17.20;65.50;;;;;;4981423;28;20035;-74
2023/03/05 12:40:06;;;;;;;59.20;31.20;;;17.20;65.70;;;;;;4924460;29;20051;-74
2023/03/05 12:42:32;;;;;;;53.13;29.58;;;17.30;65.40;;;;;;4922492;29;20814;-74